sensor_id;sensor_type;location;lat;lon;timestamp;pressure;altitude;pressure_sealevel;temperature;humidity
70982;BME280;58640;51.320;9.456;2023-01-25T00:02:16;101316.41;;;0.83;93.41
70982;BME280;58640;51.320;9.456;2023-01-25T00:04:42;101319.06;;;0.83;93.15
70982;BME280;58640;51.320;9.456;2023-01-25T00:07:07;101317.81;;;0.71;93.99
70982;BME280;58640;51.320;9.456;2023-01-25T00:09:32;101322.44;;;0.66;93.69
70982;BME280;58640;51.320;9.456;2023-01-25T00:11:57;101319.81;;;0.46;94.82
70982;BME280;58640;51.320;9.456;2023-01-25T00:14:23;101317.41;;;0.40;95.99
70982;BME280;58640;51.320;9.456;2023-01-25T00:16:49;101309.78;;;0.73;94.19
70982;BME280;58640;51.320;9.456;2023-01-25T00:19:14;101311.41;;;0.57;94.44
70982;BME280;58640;51.320;9.456;2023-01-25T00:21:39;101305.03;;;0.61;94.54
70982;BME280;58640;51.320;9.456;2023-01-25T00:24:05;101308.03;;;0.73;93.79
70982;BME280;58640;51.320;9.456;2023-01-25T00:26:32;101312.59;;;0.70;94.38
70982;BME280;58640;51.320;9.456;2023-01-25T00:28:58;101311.84;;;0.66;94.44
70982;BME280;58640;51.320;9.456;2023-01-25T00:36:45;101314.22;;;0.72;94.01
70982;BME280;58640;51.320;9.456;2023-01-25T00:39:11;101311.13;;;0.63;93.69
70982;BME280;58640;51.320;9.456;2023-01-25T00:41:37;101303.41;;;0.77;93.86
70982;BME280;58640;51.320;9.456;2023-01-25T00:44:03;101306.13;;;0.75;93.41
70982;BME280;58640;51.320;9.456;2023-01-25T00:46:28;101306.50;;;0.68;93.85
70982;BME280;58640;51.320;9.456;2023-01-25T00:48:54;101301.09;;;0.89;92.68
70982;BME280;58640;51.320;9.456;2023-01-25T00:51:21;101301.34;;;0.65;93.13
70982;BME280;58640;51.320;9.456;2023-01-25T00:53:46;101291.75;;;0.62;93.71
70982;BME280;58640;51.320;9.456;2023-01-25T00:56:11;101290.09;;;0.60;93.81
70982;BME280;58640;51.320;9.456;2023-01-25T00:58:37;101295.63;;;0.74;92.79
70982;BME280;58640;51.320;9.456;2023-01-25T01:01:02;101288.38;;;0.59;93.46
70982;BME280;58640;51.320;9.456;2023-01-25T01:03:27;101285.97;;;0.53;94.20
70982;BME280;58640;51.320;9.456;2023-01-25T01:06:05;101292.41;;;0.47;94.46
70982;BME280;58640;51.320;9.456;2023-01-25T01:08:35;101292.50;;;0.64;93.27
70982;BME280;58640;51.320;9.456;2023-01-25T01:11:06;101286.50;;;0.61;93.46
70982;BME280;58640;51.320;9.456;2023-01-25T01:13:32;101287.50;;;0.58;93.60
70982;BME280;58640;51.320;9.456;2023-01-25T01:16:00;101279.97;;;0.49;94.72
70982;BME280;58640;51.320;9.456;2023-01-25T01:18:28;101282.56;;;0.51;94.21
70982;BME280;58640;51.320;9.456;2023-01-25T01:20:53;101286.03;;;0.51;94.18
70982;BME280;58640;51.320;9.456;2023-01-25T01:23:19;101287.25;;;0.44;94.46
70982;BME280;58640;51.320;9.456;2023-01-25T01:25:45;101281.75;;;0.49;95.11
70982;BME280;58640;51.320;9.456;2023-01-25T01:28:11;101286.91;;;0.52;95.11
70982;BME280;58640;51.320;9.456;2023-01-25T01:30:37;101291.03;;;0.59;94.68
70982;BME280;58640;51.320;9.456;2023-01-25T01:33:03;101283.66;;;0.65;94.34
70982;BME280;58640;51.320;9.456;2023-01-25T01:35:29;101284.44;;;0.67;94.60
70982;BME280;58640;51.320;9.456;2023-01-25T01:37:55;101286.47;;;0.62;94.56
70982;BME280;58640;51.320;9.456;2023-01-25T01:40:21;101289.81;;;0.66;94.28
70982;BME280;58640;51.320;9.456;2023-01-25T01:48:38;101271.75;;;0.55;94.06
70982;BME280;58640;51.320;9.456;2023-01-25T01:54:06;101275.91;;;0.61;93.94
70982;BME280;58640;51.320;9.456;2023-01-25T01:56:41;101279.69;;;0.55;94.53
70982;BME280;58640;51.320;9.456;2023-01-25T01:59:09;101271.13;;;0.69;93.81
70982;BME280;58640;51.320;9.456;2023-01-25T02:01:35;101278.09;;;0.71;93.21
70982;BME280;58640;51.320;9.456;2023-01-25T02:04:01;101266.91;;;0.65;92.90
70982;BME280;58640;51.320;9.456;2023-01-25T02:06:47;101265.28;;;0.62;94.12
70982;BME280;58640;51.320;9.456;2023-01-25T02:09:18;101264.63;;;0.57;94.29
70982;BME280;58640;51.320;9.456;2023-01-25T02:11:45;101265.72;;;0.52;94.87
70982;BME280;58640;51.320;9.456;2023-01-25T02:14:13;101262.94;;;0.55;95.09
70982;BME280;58640;51.320;9.456;2023-01-25T02:16:40;101264.16;;;0.48;95.02
70982;BME280;58640;51.320;9.456;2023-01-25T02:19:06;101264.78;;;0.53;95.42
70982;BME280;58640;51.320;9.456;2023-01-25T02:21:39;101262.16;;;0.53;95.32
70982;BME280;58640;51.320;9.456;2023-01-25T02:24:19;101269.25;;;0.52;95.14
70982;BME280;58640;51.320;9.456;2023-01-25T02:26:47;101266.59;;;0.52;95.25
70982;BME280;58640;51.320;9.456;2023-01-25T02:29:13;101268.03;;;0.59;94.80
70982;BME280;58640;51.320;9.456;2023-01-25T02:31:42;101264.50;;;0.79;93.69
70982;BME280;58640;51.320;9.456;2023-01-25T02:34:07;101264.13;;;0.68;93.94
70982;BME280;58640;51.320;9.456;2023-01-25T02:36:33;101254.72;;;0.61;94.41
70982;BME280;58640;51.320;9.456;2023-01-25T02:39:13;101252.22;;;0.58;94.33
70982;BME280;58640;51.320;9.456;2023-01-25T02:41:44;101256.53;;;0.60;94.05
70982;BME280;58640;51.320;9.456;2023-01-25T02:44:15;101243.38;;;0.59;94.42
70982;BME280;58640;51.320;9.456;2023-01-25T02:46:42;101249.91;;;0.50;94.71
70982;BME280;58640;51.320;9.456;2023-01-25T02:49:09;101243.81;;;0.48;95.28
70982;BME280;58640;51.320;9.456;2023-01-25T02:51:38;101246.25;;;0.53;95.02
70982;BME280;58640;51.320;9.456;2023-01-25T02:54:05;101234.19;;;0.47;95.14
70982;BME280;58640;51.320;9.456;2023-01-25T02:56:31;101235.44;;;0.39;95.77
70982;BME280;58640;51.320;9.456;2023-01-25T02:58:57;101232.78;;;0.39;96.04
70982;BME280;58640;51.320;9.456;2023-01-25T03:01:22;101231.94;;;0.38;95.62
70982;BME280;58640;51.320;9.456;2023-01-25T03:03:48;101224.00;;;0.38;96.14
70982;BME280;58640;51.320;9.456;2023-01-25T03:06:13;101230.16;;;0.39;96.14
70982;BME280;58640;51.320;9.456;2023-01-25T03:08:39;101221.88;;;0.46;95.92
70982;BME280;58640;51.320;9.456;2023-01-25T03:11:06;101216.78;;;0.42;95.88
70982;BME280;58640;51.320;9.456;2023-01-25T03:13:32;101218.56;;;0.41;96.13
70982;BME280;58640;51.320;9.456;2023-01-25T03:16:00;101211.28;;;0.46;95.69
70982;BME280;58640;51.320;9.456;2023-01-25T03:18:26;101210.56;;;0.43;95.72
70982;BME280;58640;51.320;9.456;2023-01-25T03:20:52;101208.59;;;0.28;96.19
70982;BME280;58640;51.320;9.456;2023-01-25T03:23:17;101200.44;;;0.32;96.79
70982;BME280;58640;51.320;9.456;2023-01-25T03:25:42;101204.53;;;0.39;96.48
70982;BME280;58640;51.320;9.456;2023-01-25T03:28:08;101198.25;;;0.42;95.44
70982;BME280;58640;51.320;9.456;2023-01-25T03:30:33;101204.41;;;0.42;95.49
70982;BME280;58640;51.320;9.456;2023-01-25T03:32:58;101201.81;;;0.41;96.10
70982;BME280;58640;51.320;9.456;2023-01-25T03:35:24;101197.66;;;0.35;95.84
70982;BME280;58640;51.320;9.456;2023-01-25T03:37:49;101193.50;;;0.30;96.42
70982;BME280;58640;51.320;9.456;2023-01-25T03:40:14;101188.53;;;0.42;96.18
70982;BME280;58640;51.320;9.456;2023-01-25T03:42:40;101193.59;;;0.28;96.30
70982;BME280;58640;51.320;9.456;2023-01-25T03:45:05;101187.03;;;0.37;96.46
70982;BME280;58640;51.320;9.456;2023-01-25T03:47:31;101196.75;;;0.16;96.78
70982;BME280;58640;51.320;9.456;2023-01-25T03:49:56;101190.22;;;0.25;97.36
70982;BME280;58640;51.320;9.456;2023-01-25T03:52:21;101180.50;;;0.25;96.81
70982;BME280;58640;51.320;9.456;2023-01-25T03:54:48;101184.56;;;0.32;96.44
70982;BME280;58640;51.320;9.456;2023-01-25T03:57:14;101175.66;;;0.35;96.68
70982;BME280;58640;51.320;9.456;2023-01-25T03:59:39;101169.16;;;0.03;97.11
70982;BME280;58640;51.320;9.456;2023-01-25T04:02:04;101165.28;;;0.10;96.75
70982;BME280;58640;51.320;9.456;2023-01-25T04:04:29;101168.06;;;0.07;96.95
70982;BME280;58640;51.320;9.456;2023-01-25T04:06:55;101168.06;;;0.07;97.57
70982;BME280;58640;51.320;9.456;2023-01-25T04:09:20;101167.94;;;0.10;97.28
70982;BME280;58640;51.320;9.456;2023-01-25T04:11:48;101164.78;;;0.02;97.60
70982;BME280;58640;51.320;9.456;2023-01-25T04:14:14;101165.78;;;-0.01;98.20
70982;BME280;58640;51.320;9.456;2023-01-25T04:16:39;101168.69;;;-0.07;98.00
70982;BME280;58640;51.320;9.456;2023-01-25T04:19:04;101161.75;;;0.11;97.01
70982;BME280;58640;51.320;9.456;2023-01-25T04:21:30;101164.25;;;-0.06;97.50
70982;BME280;58640;51.320;9.456;2023-01-25T04:23:55;101169.06;;;-0.16;97.47
70982;BME280;58640;51.320;9.456;2023-01-25T04:26:20;101160.69;;;-0.05;97.58
70982;BME280;58640;51.320;9.456;2023-01-25T04:28:46;101158.56;;;-0.17;98.23
70982;BME280;58640;51.320;9.456;2023-01-25T04:31:11;101151.13;;;-0.28;99.73
70982;BME280;58640;51.320;9.456;2023-01-25T04:33:36;101155.47;;;-0.27;99.73
70982;BME280;58640;51.320;9.456;2023-01-25T04:36:02;101145.34;;;-0.17;99.07
70982;BME280;58640;51.320;9.456;2023-01-25T04:38:27;101141.88;;;-0.18;98.91
70982;BME280;58640;51.320;9.456;2023-01-25T04:40:53;101146.09;;;-0.14;98.71
70982;BME280;58640;51.320;9.456;2023-01-25T04:43:19;101140.13;;;-0.19;99.02
70982;BME280;58640;51.320;9.456;2023-01-25T04:45:45;101136.69;;;-0.01;98.37
70982;BME280;58640;51.320;9.456;2023-01-25T04:48:12;101143.06;;;0.14;96.91
70982;BME280;58640;51.320;9.456;2023-01-25T04:50:38;101143.97;;;0.13;96.38
70982;BME280;58640;51.320;9.456;2023-01-25T04:53:05;101142.44;;;-0.11;97.45
70982;BME280;58640;51.320;9.456;2023-01-25T04:55:31;101138.88;;;-0.10;98.08
70982;BME280;58640;51.320;9.456;2023-01-25T04:57:56;101145.94;;;-0.11;98.34
70982;BME280;58640;51.320;9.456;2023-01-25T05:00:21;101144.75;;;-0.04;97.94
70982;BME280;58640;51.320;9.456;2023-01-25T05:02:47;101145.22;;;-0.14;97.29
70982;BME280;58640;51.320;9.456;2023-01-25T05:05:13;101138.00;;;-0.11;97.52
70982;BME280;58640;51.320;9.456;2023-01-25T05:07:39;101143.44;;;-0.14;98.50
70982;BME280;58640;51.320;9.456;2023-01-25T05:10:05;101130.66;;;-0.04;97.85
70982;BME280;58640;51.320;9.456;2023-01-25T05:12:31;101133.66;;;-0.12;98.50
70982;BME280;58640;51.320;9.456;2023-01-25T05:14:56;101137.56;;;-0.20;99.20
70982;BME280;58640;51.320;9.456;2023-01-25T05:17:22;101135.16;;;-0.06;98.25
70982;BME280;58640;51.320;9.456;2023-01-25T05:19:47;101133.53;;;-0.09;98.06
70982;BME280;58640;51.320;9.456;2023-01-25T05:22:14;101134.78;;;-0.17;98.56
70982;BME280;58640;51.320;9.456;2023-01-25T05:24:39;101131.28;;;-0.18;99.22
70982;BME280;58640;51.320;9.456;2023-01-25T05:27:14;101128.16;;;-0.07;98.46
70982;BME280;58640;51.320;9.456;2023-01-25T05:29:43;101128.50;;;-0.15;98.64
70982;BME280;58640;51.320;9.456;2023-01-25T05:32:09;101129.41;;;-0.16;99.32
70982;BME280;58640;51.320;9.456;2023-01-25T05:34:36;101126.63;;;-0.13;99.39
70982;BME280;58640;51.320;9.456;2023-01-25T05:37:02;101127.50;;;-0.12;99.23
70982;BME280;58640;51.320;9.456;2023-01-25T05:39:27;101121.72;;;-0.02;98.75
70982;BME280;58640;51.320;9.456;2023-01-25T05:41:53;101122.66;;;-0.03;98.85
70982;BME280;58640;51.320;9.456;2023-01-25T05:44:19;101121.84;;;-0.05;98.54
70982;BME280;58640;51.320;9.456;2023-01-25T05:46:44;101121.72;;;-0.02;98.85
70982;BME280;58640;51.320;9.456;2023-01-25T05:49:09;101121.16;;;-0.08;99.26
70982;BME280;58640;51.320;9.456;2023-01-25T05:51:35;101122.06;;;-0.09;99.18
70982;BME280;58640;51.320;9.456;2023-01-25T05:54:03;101123.59;;;-0.04;99.38
70982;BME280;58640;51.320;9.456;2023-01-25T05:56:29;101124.50;;;-0.05;99.06
70982;BME280;58640;51.320;9.456;2023-01-25T05:58:56;101123.00;;;-0.10;98.65
70982;BME280;58640;51.320;9.456;2023-01-25T06:01:22;101119.66;;;0.05;98.32
70982;BME280;58640;51.320;9.456;2023-01-25T06:03:47;101108.16;;;0.06;97.32
70982;BME280;58640;51.320;9.456;2023-01-25T06:06:13;101119.03;;;0.00;98.20
70982;BME280;58640;51.320;9.456;2023-01-25T06:08:38;101110.50;;;-0.07;98.84
70982;BME280;58640;51.320;9.456;2023-01-25T06:11:11;101107.00;;;-0.07;99.24
70982;BME280;58640;51.320;9.456;2023-01-25T06:13:36;101104.56;;;-0.12;99.73
70982;BME280;58640;51.320;9.456;2023-01-25T06:16:02;101106.13;;;-0.08;99.62
70982;BME280;58640;51.320;9.456;2023-01-25T06:18:29;101112.16;;;-0.04;99.43
70982;BME280;58640;51.320;9.456;2023-01-25T06:20:56;101109.00;;;-0.12;100.00
70982;BME280;58640;51.320;9.456;2023-01-25T06:23:22;101111.41;;;-0.08;99.71
70982;BME280;58640;51.320;9.456;2023-01-25T06:46:56;101114.94;;;-0.27;100.00
70982;BME280;58640;51.320;9.456;2023-01-25T06:49:24;101108.59;;;-0.23;99.94
70982;BME280;58640;51.320;9.456;2023-01-25T07:21:23;101087.88;;;-0.32;99.53
70982;BME280;58640;51.320;9.456;2023-01-25T07:35:09;101088.91;;;-0.36;99.58
70982;BME280;58640;51.320;9.456;2023-01-25T07:37:34;101089.78;;;-0.36;99.21
70982;BME280;58640;51.320;9.456;2023-01-25T07:39:59;101087.53;;;-0.25;98.35
70982;BME280;58640;51.320;9.456;2023-01-25T07:42:25;101082.19;;;-0.43;99.17
70982;BME280;58640;51.320;9.456;2023-01-25T07:44:50;101081.31;;;-0.44;99.43
70982;BME280;58640;51.320;9.456;2023-01-25T07:47:16;101079.88;;;-0.31;99.38
70982;BME280;58640;51.320;9.456;2023-01-25T07:49:44;101072.47;;;-0.23;99.15
70982;BME280;58640;51.320;9.456;2023-01-25T07:52:09;101073.16;;;-0.19;98.74
70982;BME280;58640;51.320;9.456;2023-01-25T07:54:34;101071.31;;;-0.17;98.80
70982;BME280;58640;51.320;9.456;2023-01-25T07:57:00;101068.06;;;-0.24;98.96
70982;BME280;58640;51.320;9.456;2023-01-25T07:59:25;101079.81;;;-0.29;99.15
70982;BME280;58640;51.320;9.456;2023-01-25T08:01:51;101074.91;;;-0.38;98.72
70982;BME280;58640;51.320;9.456;2023-01-25T08:04:17;101081.13;;;-0.39;100.00
70982;BME280;58640;51.320;9.456;2023-01-25T08:06:43;101075.38;;;-0.49;100.00
70982;BME280;58640;51.320;9.456;2023-01-25T08:09:12;101083.50;;;-0.33;99.43
70982;BME280;58640;51.320;9.456;2023-01-25T08:11:38;101085.47;;;-0.38;99.45
70982;BME280;58640;51.320;9.456;2023-01-25T08:14:04;101084.28;;;-0.31;99.75
70982;BME280;58640;51.320;9.456;2023-01-25T08:16:30;101082.91;;;-0.20;99.17
70982;BME280;58640;51.320;9.456;2023-01-25T08:18:58;101080.84;;;-0.13;97.91
70982;BME280;58640;51.320;9.456;2023-01-25T08:21:25;101075.16;;;-0.24;98.55
70982;BME280;58640;51.320;9.456;2023-01-25T08:23:54;101078.66;;;-0.24;98.60
70982;BME280;58640;51.320;9.456;2023-01-25T08:26:19;101084.00;;;-0.25;97.81
70982;BME280;58640;51.320;9.456;2023-01-25T08:28:45;101080.19;;;-0.18;98.20
70982;BME280;58640;51.320;9.456;2023-01-25T08:31:16;101081.66;;;-0.13;98.12
70982;BME280;58640;51.320;9.456;2023-01-25T08:33:43;101077.97;;;-0.09;97.21
70982;BME280;58640;51.320;9.456;2023-01-25T08:36:11;101079.81;;;-0.11;97.37
70982;BME280;58640;51.320;9.456;2023-01-25T08:38:37;101071.72;;;-0.26;98.36
70982;BME280;58640;51.320;9.456;2023-01-25T08:41:15;101072.63;;;-0.07;97.24
70982;BME280;58640;51.320;9.456;2023-01-25T08:43:42;101074.81;;;-0.17;97.62
70982;BME280;58640;51.320;9.456;2023-01-25T08:46:07;101074.31;;;-0.06;97.29
70982;BME280;58640;51.320;9.456;2023-01-25T08:48:33;101065.28;;;-0.01;96.83
70982;BME280;58640;51.320;9.456;2023-01-25T08:50:59;101069.97;;;-0.07;98.05
70982;BME280;58640;51.320;9.456;2023-01-25T08:53:27;101066.09;;;-0.19;97.58
70982;BME280;58640;51.320;9.456;2023-01-25T08:55:52;101064.53;;;-0.23;100.00
70982;BME280;58640;51.320;9.456;2023-01-25T08:58:18;101059.91;;;-0.18;99.01
70982;BME280;58640;51.320;9.456;2023-01-25T09:00:45;101055.97;;;-0.09;98.36
70982;BME280;58640;51.320;9.456;2023-01-25T09:03:11;101057.81;;;-0.11;98.22
70982;BME280;58640;51.320;9.456;2023-01-25T09:05:37;101053.38;;;-0.11;97.83
70982;BME280;58640;51.320;9.456;2023-01-25T09:08:04;101044.41;;;-0.07;97.87
70982;BME280;58640;51.320;9.456;2023-01-25T09:10:30;101051.97;;;0.01;98.00
70982;BME280;58640;51.320;9.456;2023-01-25T09:12:56;101052.63;;;0.06;97.34
70982;BME280;58640;51.320;9.456;2023-01-25T09:15:21;101053.69;;;0.02;97.76
70982;BME280;58640;51.320;9.456;2023-01-25T09:17:49;101052.03;;;-0.01;98.04
70982;BME280;58640;51.320;9.456;2023-01-25T09:20:15;101054.47;;;0.04;97.12
70982;BME280;58640;51.320;9.456;2023-01-25T09:22:41;101050.06;;;0.05;97.18
70982;BME280;58640;51.320;9.456;2023-01-25T09:25:06;101050.97;;;0.22;96.45
70982;BME280;58640;51.320;9.456;2023-01-25T09:27:32;101044.03;;;0.38;95.09
70982;BME280;58640;51.320;9.456;2023-01-25T09:29:57;101051.34;;;0.33;94.93
70982;BME280;58640;51.320;9.456;2023-01-25T09:32:22;101046.44;;;0.24;95.26
70982;BME280;58640;51.320;9.456;2023-01-25T09:34:48;101050.56;;;0.13;96.98
70982;BME280;58640;51.320;9.456;2023-01-25T09:37:13;101048.75;;;-0.06;97.76
70982;BME280;58640;51.320;9.456;2023-01-25T09:39:38;101041.69;;;-0.05;97.37
70982;BME280;58640;51.320;9.456;2023-01-25T09:42:20;101035.66;;;-0.09;96.91
70982;BME280;58640;51.320;9.456;2023-01-25T09:50:16;101035.22;;;-0.18;97.65
70982;BME280;58640;51.320;9.456;2023-01-25T09:55:14;101033.25;;;0.06;96.54
70982;BME280;58640;51.320;9.456;2023-01-25T09:57:41;101037.66;;;0.05;97.01
70982;BME280;58640;51.320;9.456;2023-01-25T10:00:23;101020.38;;;-0.02;96.72
70982;BME280;58640;51.320;9.456;2023-01-25T10:03:19;101016.72;;;-0.18;97.70
70982;BME280;58640;51.320;9.456;2023-01-25T10:05:47;101007.16;;;-0.02;97.74
70982;BME280;58640;51.320;9.456;2023-01-25T10:08:25;101017.06;;;0.12;96.25
70982;BME280;58640;51.320;9.456;2023-01-25T10:10:58;101003.91;;;0.10;95.82
70982;BME280;58640;51.320;9.456;2023-01-25T10:13:24;101004.81;;;-0.08;96.74
70982;BME280;58640;51.320;9.456;2023-01-25T10:15:53;101001.28;;;-0.09;95.89
70982;BME280;58640;51.320;9.456;2023-01-25T10:18:31;101004.44;;;-0.01;96.53
70982;BME280;58640;51.320;9.456;2023-01-25T10:21:02;100997.84;;;-0.11;95.98
70982;BME280;58640;51.320;9.456;2023-01-25T10:28:45;100989.34;;;-0.17;96.11
70982;BME280;58640;51.320;9.456;2023-01-25T10:31:17;100988.44;;;-0.16;97.87
70982;BME280;58640;51.320;9.456;2023-01-25T10:33:45;100984.19;;;-0.02;96.76
70982;BME280;58640;51.320;9.456;2023-01-25T10:36:21;100977.47;;;0.10;95.75
70982;BME280;58640;51.320;9.456;2023-01-25T10:38:51;100979.19;;;0.11;95.61
70982;BME280;58640;51.320;9.456;2023-01-25T10:41:35;100973.91;;;0.11;95.26
70982;BME280;58640;51.320;9.456;2023-01-25T10:44:02;100974.44;;;0.18;94.62
70982;BME280;58640;51.320;9.456;2023-01-25T10:46:49;100959.25;;;0.04;95.46
70982;BME280;58640;51.320;9.456;2023-01-25T10:49:49;100966.53;;;-0.01;95.89
70982;BME280;58640;51.320;9.456;2023-01-25T10:52:17;100955.81;;;0.02;95.91
70982;BME280;58640;51.320;9.456;2023-01-25T10:54:46;100952.88;;;0.08;96.27
70982;BME280;58640;51.320;9.456;2023-01-25T10:57:19;100954.16;;;0.18;95.80
70982;BME280;58640;51.320;9.456;2023-01-25T10:59:49;100934.66;;;0.02;95.46
70982;BME280;58640;51.320;9.456;2023-01-25T11:10:44;100928.44;;;0.03;95.44
70982;BME280;58640;51.320;9.456;2023-01-25T11:16:51;100905.72;;;-0.01;96.63
70982;BME280;58640;51.320;9.456;2023-01-25T11:19:31;100909.25;;;0.17;96.27
70982;BME280;58640;51.320;9.456;2023-01-25T12:43:02;100756.75;;;0.16;94.59
70982;BME280;58640;51.320;9.456;2023-01-25T12:51:04;100746.34;;;0.13;94.61
70982;BME280;58640;51.320;9.456;2023-01-25T12:53:43;100733.56;;;0.21;93.74
70982;BME280;58640;51.320;9.456;2023-01-25T13:21:58;100675.13;;;0.08;96.25
70982;BME280;58640;51.320;9.456;2023-01-25T13:43:19;100641.03;;;-0.14;96.25
70982;BME280;58640;51.320;9.456;2023-01-25T13:45:57;100642.81;;;0.03;95.15
70982;BME280;58640;51.320;9.456;2023-01-25T14:21:24;100606.53;;;-0.28;97.27
70982;BME280;58640;51.320;9.456;2023-01-25T14:23:50;100603.50;;;-0.37;97.46
70982;BME280;58640;51.320;9.456;2023-01-25T14:26:26;100605.44;;;-0.41;97.85
70982;BME280;58640;51.320;9.456;2023-01-25T14:28:54;100609.41;;;-0.32;97.82
70982;BME280;58640;51.320;9.456;2023-01-25T14:31:23;100594.47;;;-0.33;97.56
70982;BME280;58640;51.320;9.456;2023-01-25T14:33:50;100581.94;;;-0.30;97.24
70982;BME280;58640;51.320;9.456;2023-01-25T14:36:26;100579.25;;;-0.62;100.00
70982;BME280;58640;51.320;9.456;2023-01-25T14:38:52;100582.22;;;-0.51;98.70
70982;BME280;58640;51.320;9.456;2023-01-25T14:43:48;100573.03;;;-0.61;98.15
70982;BME280;58640;51.320;9.456;2023-01-25T14:46:27;100572.72;;;-0.55;98.84
70982;BME280;58640;51.320;9.456;2023-01-25T14:49:14;100568.06;;;-0.50;98.11
70982;BME280;58640;51.320;9.456;2023-01-25T14:51:48;100564.09;;;-0.42;96.85
70982;BME280;58640;51.320;9.456;2023-01-25T14:54:23;100566.38;;;-0.51;97.73
70982;BME280;58640;51.320;9.456;2023-01-25T14:56:52;100555.38;;;-0.44;96.51
70982;BME280;58640;51.320;9.456;2023-01-25T15:01:51;100560.22;;;-0.52;98.28
70982;BME280;58640;51.320;9.456;2023-01-25T15:04:18;100553.47;;;-0.74;99.67
70982;BME280;58640;51.320;9.456;2023-01-25T15:06:52;100556.53;;;-0.32;98.11
70982;BME280;58640;51.320;9.456;2023-01-25T15:12:00;100553.91;;;-0.49;97.41
70982;BME280;58640;51.320;9.456;2023-01-25T15:14:26;100550.41;;;-0.67;98.29
70982;BME280;58640;51.320;9.456;2023-01-25T15:16:51;100553.78;;;-0.63;99.15
70982;BME280;58640;51.320;9.456;2023-01-25T15:19:22;100551.66;;;-0.91;100.00
70982;BME280;58640;51.320;9.456;2023-01-25T15:21:48;100546.41;;;-0.74;100.00
70982;BME280;58640;51.320;9.456;2023-01-25T15:24:13;100545.38;;;-0.71;100.00
70982;BME280;58640;51.320;9.456;2023-01-25T15:26:38;100540.63;;;-0.65;100.00
70982;BME280;58640;51.320;9.456;2023-01-25T15:31:37;100524.00;;;-0.67;100.00
70982;BME280;58640;51.320;9.456;2023-01-25T15:34:03;100523.78;;;-0.79;100.00
70982;BME280;58640;51.320;9.456;2023-01-25T15:36:29;100531.31;;;-0.72;100.00
70982;BME280;58640;51.320;9.456;2023-01-25T15:38:55;100522.00;;;-0.79;100.00
70982;BME280;58640;51.320;9.456;2023-01-25T15:41:20;100509.88;;;-0.66;100.00
70982;BME280;58640;51.320;9.456;2023-01-25T15:43:46;100521.53;;;-0.87;100.00
70982;BME280;58640;51.320;9.456;2023-01-25T15:46:20;100522.34;;;-0.85;100.00
70982;BME280;58640;51.320;9.456;2023-01-25T15:48:48;100523.25;;;-0.86;100.00
70982;BME280;58640;51.320;9.456;2023-01-25T15:51:14;100527.97;;;-0.92;100.00
70982;BME280;58640;51.320;9.456;2023-01-25T15:53:40;100518.25;;;-0.75;100.00
70982;BME280;58640;51.320;9.456;2023-01-25T15:56:12;100515.69;;;-0.76;100.00
70982;BME280;58640;51.320;9.456;2023-01-25T15:58:40;100524.25;;;-0.88;100.00
70982;BME280;58640;51.320;9.456;2023-01-25T16:01:06;100515.41;;;-0.87;100.00
70982;BME280;58640;51.320;9.456;2023-01-25T16:03:31;100508.56;;;-0.91;100.00
70982;BME280;58640;51.320;9.456;2023-01-25T16:06:01;100509.03;;;-0.83;100.00
70982;BME280;58640;51.320;9.456;2023-01-25T16:08:27;100501.19;;;-0.85;100.00
70982;BME280;58640;51.320;9.456;2023-01-25T16:10:52;100499.78;;;-0.75;100.00
70982;BME280;58640;51.320;9.456;2023-01-25T16:13:17;100509.88;;;-0.83;100.00
70982;BME280;58640;51.320;9.456;2023-01-25T16:15:47;100504.00;;;-0.88;100.00
70982;BME280;58640;51.320;9.456;2023-01-25T16:18:13;100511.06;;;-0.88;100.00
70982;BME280;58640;51.320;9.456;2023-01-25T16:20:40;100505.06;;;-0.92;100.00
70982;BME280;58640;51.320;9.456;2023-01-25T16:23:05;100493.50;;;-0.89;100.00
70982;BME280;58640;51.320;9.456;2023-01-25T16:25:32;100492.88;;;-0.77;100.00
70982;BME280;58640;51.320;9.456;2023-01-25T16:27:57;100501.88;;;-0.81;100.00
70982;BME280;58640;51.320;9.456;2023-01-25T16:30:24;100499.69;;;-0.73;100.00
70982;BME280;58640;51.320;9.456;2023-01-25T16:32:52;100509.88;;;-0.83;100.00
70982;BME280;58640;51.320;9.456;2023-01-25T16:35:18;100506.25;;;-0.80;100.00
70982;BME280;58640;51.320;9.456;2023-01-25T16:37:44;100507.22;;;-0.83;100.00
70982;BME280;58640;51.320;9.456;2023-01-25T16:42:43;100498.16;;;-0.77;100.00
70982;BME280;58640;51.320;9.456;2023-01-25T16:45:09;100499.03;;;-0.77;100.00
70982;BME280;58640;51.320;9.456;2023-01-25T16:47:34;100495.59;;;-0.79;99.34
70982;BME280;58640;51.320;9.456;2023-01-25T16:49:59;100489.66;;;-0.67;99.13
70982;BME280;58640;51.320;9.456;2023-01-25T16:52:24;100483.09;;;-0.75;99.50
70982;BME280;58640;51.320;9.456;2023-01-25T16:54:50;100481.84;;;-0.85;98.67
70982;BME280;58640;51.320;9.456;2023-01-25T16:57:15;100489.00;;;-0.87;100.00
70982;BME280;58640;51.320;9.456;2023-01-25T16:59:40;100472.06;;;-0.83;100.00
70982;BME280;58640;51.320;9.456;2023-01-25T17:02:10;100486.84;;;-0.96;100.00
70982;BME280;58640;51.320;9.456;2023-01-25T17:04:35;100478.59;;;-0.90;100.00
70982;BME280;58640;51.320;9.456;2023-01-25T17:07:00;100483.00;;;-0.91;100.00
70982;BME280;58640;51.320;9.456;2023-01-25T17:09:26;100481.69;;;-0.82;100.00
70982;BME280;58640;51.320;9.456;2023-01-25T17:11:52;100480.38;;;-0.91;100.00
70982;BME280;58640;51.320;9.456;2023-01-25T17:14:18;100483.09;;;-1.09;100.00
70982;BME280;58640;51.320;9.456;2023-01-25T17:16:45;100484.94;;;-1.11;100.00
70982;BME280;58640;51.320;9.456;2023-01-25T17:19:13;100481.56;;;-0.96;100.00
70982;BME280;58640;51.320;9.456;2023-01-25T17:21:39;100473.63;;;-0.96;100.00
70982;BME280;58640;51.320;9.456;2023-01-25T17:24:04;100467.03;;;-0.88;100.00
70982;BME280;58640;51.320;9.456;2023-01-25T17:26:31;100459.16;;;-0.89;100.00
70982;BME280;58640;51.320;9.456;2023-01-25T17:28:59;100464.44;;;-0.89;100.00
70982;BME280;58640;51.320;9.456;2023-01-25T17:31:29;100461.75;;;-0.88;100.00
70982;BME280;58640;51.320;9.456;2023-01-25T17:33:55;100458.31;;;-0.90;100.00